WEATHER DATA

TODAY
Time Temp. Dewp. Hum. Bar.
00:08 -20.7 -22.6 83 1022.2
00:18 -20.7 -22.6 83 1022.2
00:28 -20.7 -22.6 83 1022.1
00:38 -20.7 -22.6 83 1022
00:48 -20.7 -22.6 83 1021.9
00:58 -20.7 -22.6 83 1021.8
01:08 -20.6 -22.5 83 1021.7
01:19 -20.6 -22.5 83 1021.6
01:28 -20.5 -22.4 83 1021.6
01:38 -20.5 -22.4 83 1021.6
01:49 -20.5 -22.4 83 1021.7
01:59 -20.3 -22.1 84 1021.6
02:09 -20.2 -22 84 1021.7
02:18 -20.1 -21.9 84 1021.6
02:29 -20 -21.8 84 1021.5
02:39 -19.9 -21.7 84 1021.5
02:49 -19.8 -21.6 84 1021.3
02:59 -19.8 -21.6 84 1021.3
03:09 -19.7 -21.5 84 1021.1
03:19 -19.7 -21.5 84 1021.1
03:29 -19.6 -21.4 84 1021
03:40 -19.6 -21.4 84 1021
03:50 -19.6 -21.4 84 1020.9
04:00 -19.5 -21.3 84 1020.8
04:10 -19.4 -21.2 84 1021
04:20 -19.3 -21.1 84 1020.9
04:30 -19.2 -21 84 1020.8
04:40 -19.1 -20.9 84 1020.7
04:51 -19 -20.8 84 1020.6
05:00 -19 -20.8 84 1020.6
05:10 -18.9 -20.7 84 1020.6
05:20 -18.9 -20.7 84 1020.4
05:31 -18.8 -20.6 84 1020.5
05:41 -18.7 -20.5 84 1020.5
05:50 -18.7 -20.5 84 1020.5
06:01 -18.6 -20.4 84 1020.5
06:11 -18.6 -20.4 84 1020.4
06:21 -18.5 -20.3 84 1020.5
06:31 -18.5 -20.3 84 1020.4
06:41 -18.4 -20.2 84 1020.4
06:51 -18.4 -20.2 84 1020.4
07:01 -18.4 -20.2 84 1020.4
07:12 -18.3 -20.1 84 1020.4
07:22 -18.2 -20 84 1020.3
07:31 -18.2 -20 84 1020.3
07:41 -18.1 -19.9 84 1020.2
07:52 -18.1 -19.9 84 1020.3
08:02 -18 -19.8 84 1020.3
08:12 -18 -19.8 84 1020.3
08:23 -17.9 -19.7 84 1020.4
08:32 -17.9 -19.7 84 1020.4
09:38 -17.5 -19.3 84 1020.4
09:48 -17.5 -19.3 84 1020.3
09:58 -17.4 -19.2 84 1020.5
10:08 -17.3 -19.1 84 1020.5
10:18 -17.3 -19 85 1020.4
10:28 -17.2 -19 84 1020.3
10:38 -17.2 -19 84 1020.4
10:49 -17.2 -19 84 1020.3
10:59 -17.2 -19 84 1020.4
11:08 -17.1 -18.9 84 1020.4
11:19 -17 -18.7 85 1020.4
11:29 -17 -18.7 85 1020.3
11:39 -16.9 -18.6 85 1020.3
11:49 -16.9 -18.7 84 1020.1
11:59 -16.8 -18.6 84 1020.1
12:09 -16.8 -18.6 84 1020.1
12:19 -16.8 -18.6 84 1020.1
12:29 -16.8 -18.6 84 1020
12:40 -16.9 -18.7 84 1019.9
12:50 -16.8 -18.6 84 1020
12:59 -16.9 -18.7 84 1020
13:10 -16.8 -18.6 84 1019.9

DAY STATISTIC

2021-12-07
TEMPERATURE
AVERAGE
-18.6
HIGH
-16.8
11:59
LOW
-20.7
00:08
PRESSURE
AVERAGE
1020.8
HIGH
1022.2
00:08
LOW
1019.9
12:40
DEWPOINT
AVERAGE
-20.5
HIGH
-18.6
11:39
LOW
-22.6
00:08
HUMIDITY
AVERAGE
84
HIGH
85
10:18
LOW
83
00:08
TEMPERATURE (°C)
LOW
-20.7
HIGH
-16.8
AVERAGE
-18.6
PRESSURE (hpa)
LOW
1019.9
HIGH
1022.2
AVERAGE
1020.8
DEVICE